createdAt,value
2023-05-14T00:00:22.303Z,13.17
2023-05-14T00:03:10.786Z,12.93
2023-05-14T00:05:38.803Z,11.50
2023-05-14T00:08:06.575Z,11.18
2023-05-14T00:10:34.585Z,11.00
2023-05-14T00:13:02.257Z,13.97
2023-05-14T00:15:31.296Z,10.45
2023-05-14T00:18:01.251Z,13.27
2023-05-14T00:20:29.315Z,12.90
2023-05-14T00:22:56.901Z,11.43
2023-05-14T00:25:24.793Z,13.33
2023-05-14T00:27:52.430Z,12.38
2023-05-14T00:30:20.595Z,15.95
2023-05-14T00:32:48.304Z,12.73
2023-05-14T00:35:16.635Z,15.02
2023-05-14T00:37:44.295Z,10.90
2023-05-14T00:40:13.341Z,15.57
2023-05-14T00:42:41.306Z,14.32
2023-05-14T00:45:10.959Z,12.98
2023-05-14T00:47:40.283Z,11.68
2023-05-14T00:50:09.075Z,13.00
2023-05-14T00:52:37.952Z,13.23
2023-05-14T00:55:07.462Z,12.15
2023-05-14T00:57:36.723Z,11.13
2023-05-14T01:00:05.787Z,12.18
2023-05-14T01:02:33.621Z,12.77
2023-05-14T01:05:03.034Z,10.90
2023-05-14T01:07:40.841Z,11.95
2023-05-14T01:10:17.744Z,13.35
2023-05-14T01:12:57.495Z,11.90
2023-05-14T01:15:30.373Z,10.77
2023-05-14T01:18:14.064Z,11.45
2023-05-14T01:20:42.083Z,10.02
2023-05-14T01:23:09.865Z,12.02
2023-05-14T01:25:38.079Z,12.20
2023-05-14T01:28:29.104Z,11.43
2023-05-14T01:31:12.460Z,11.52
2023-05-14T01:33:42.757Z,11.55
2023-05-14T01:36:11.154Z,10.13
2023-05-14T01:38:40.042Z,12.30
2023-05-14T01:41:08.010Z,10.37
2023-05-14T01:43:36.016Z,13.43
2023-05-14T01:46:05.266Z,12.05
2023-05-14T01:48:32.867Z,11.52
2023-05-14T01:51:00.954Z,10.00
2023-05-14T01:53:28.636Z,9.33
2023-05-14T01:55:56.667Z,11.90
2023-05-14T01:58:24.220Z,11.95
2023-05-14T02:00:52.216Z,10.75
2023-05-14T02:03:19.767Z,12.27
2023-05-14T02:05:47.652Z,13.37
2023-05-14T02:08:15.189Z,9.73
2023-05-14T02:10:43.247Z,10.05
2023-05-14T02:13:11.029Z,11.15
2023-05-14T02:15:40.766Z,10.63
2023-05-14T02:18:08.401Z,10.43
2023-05-14T02:20:36.250Z,11.35
2023-05-14T02:23:03.933Z,12.02
2023-05-14T02:25:31.870Z,11.00
2023-05-14T02:27:59.299Z,11.52
2023-05-14T02:30:27.300Z,11.97
2023-05-14T02:32:54.995Z,11.50
2023-05-14T02:35:23.254Z,14.63
2023-05-14T02:37:50.870Z,11.90
2023-05-14T02:40:19.864Z,9.77
2023-05-14T02:42:47.415Z,8.77
2023-05-14T02:45:15.398Z,8.57
2023-05-14T02:47:43.991Z,11.27
2023-05-14T02:50:14.288Z,8.75
2023-05-14T02:52:42.003Z,12.15
2023-05-14T02:55:10.564Z,8.53
2023-05-14T02:57:38.076Z,8.75
2023-05-14T03:00:09.527Z,9.48
2023-05-14T03:02:37.693Z,10.32
2023-05-14T03:05:06.210Z,12.80
2023-05-14T03:07:33.856Z,10.27
2023-05-14T03:10:01.850Z,10.18
2023-05-14T03:12:29.639Z,11.07
2023-05-14T03:14:57.508Z,13.27
2023-05-14T03:17:26.778Z,10.00
2023-05-14T03:19:54.663Z,13.33
2023-05-14T03:22:22.489Z,13.75
2023-05-14T03:24:50.317Z,10.43
2023-05-14T03:27:17.924Z,11.35
2023-05-14T03:29:45.892Z,12.60
2023-05-14T03:32:13.616Z,13.27
2023-05-14T03:34:42.182Z,13.68
2023-05-14T03:37:09.942Z,12.57
2023-05-14T03:39:37.755Z,10.80
2023-05-14T03:42:05.929Z,11.68
2023-05-14T03:44:33.731Z,12.33
2023-05-14T03:47:01.387Z,11.35
2023-05-14T03:49:29.360Z,11.55
2023-05-14T03:51:59.750Z,11.00
2023-05-14T03:54:27.742Z,10.32
2023-05-14T03:56:55.551Z,11.80
2023-05-14T03:59:23.550Z,14.60
2023-05-14T04:01:51.173Z,13.38
2023-05-14T04:04:20.644Z,11.18
2023-05-14T04:06:48.434Z,10.55
2023-05-14T04:09:16.341Z,13.80
2023-05-14T04:11:44.204Z,19.38
2023-05-14T04:14:12.407Z,16.30
2023-05-14T04:16:40.441Z,13.85
2023-05-14T04:19:08.736Z,10.65
2023-05-14T04:21:36.921Z,15.27
2023-05-14T04:24:05.436Z,12.38
2023-05-14T04:26:33.412Z,13.52
2023-05-14T04:29:03.448Z,12.57
2023-05-14T04:31:31.985Z,10.95
2023-05-14T04:34:00.255Z,11.67
2023-05-14T04:36:28.068Z,11.05
2023-05-14T04:38:56.446Z,11.88
2023-05-14T04:41:24.263Z,11.95
2023-05-14T04:43:55.772Z,8.88
2023-05-14T04:46:23.471Z,10.60
2023-05-14T04:48:52.286Z,10.52
2023-05-14T04:51:20.204Z,9.77
2023-05-14T04:53:48.113Z,12.25
2023-05-14T04:56:15.912Z,8.57
2023-05-14T04:58:43.820Z,11.63
2023-05-14T05:01:11.727Z,12.30
2023-05-14T05:03:39.905Z,9.90
2023-05-14T05:06:07.838Z,11.00
2023-05-14T05:08:35.713Z,9.35
2023-05-14T05:11:03.566Z,12.90
2023-05-14T05:13:32.587Z,8.32
2023-05-14T05:16:00.558Z,10.05
2023-05-14T05:18:28.844Z,8.40
2023-05-14T05:20:57.038Z,12.65
2023-05-14T05:23:25.217Z,10.70
2023-05-14T05:25:53.002Z,10.20
2023-05-14T05:28:20.978Z,9.98
2023-05-14T05:30:48.953Z,25.58
2023-05-14T05:33:17.097Z,12.07
2023-05-14T05:35:45.089Z,18.77
2023-05-14T05:38:13.257Z,11.55
2023-05-14T05:40:41.188Z,29.67
2023-05-14T05:43:09.246Z,10.15
2023-05-14T05:45:36.959Z,10.43
2023-05-14T05:48:05.232Z,10.33
2023-05-14T05:50:33.042Z,13.98
2023-05-14T05:53:01.220Z,7.68
2023-05-14T05:55:29.990Z,7.68
2023-05-14T05:57:58.045Z,6.68
2023-05-14T06:00:26.313Z,9.03
2023-05-14T06:02:54.610Z,7.55
2023-05-14T06:05:22.347Z,6.95
2023-05-14T06:07:50.850Z,8.98
2023-05-14T06:10:19.007Z,7.43
2023-05-14T06:12:46.946Z,9.90
2023-05-14T06:15:15.407Z,6.25
2023-05-14T06:17:43.579Z,7.25
2023-05-14T06:20:11.950Z,6.75
2023-05-14T06:22:40.318Z,9.57
2023-05-14T06:25:08.635Z,7.07
2023-05-14T06:27:36.755Z,6.95
2023-05-14T06:30:05.123Z,7.30
2023-05-14T06:32:33.518Z,8.60
2023-05-14T06:35:01.453Z,7.55
2023-05-14T06:37:29.590Z,13.83
2023-05-14T06:39:58.060Z,8.07
2023-05-14T06:42:26.959Z,7.13
2023-05-14T06:44:55.141Z,6.63
2023-05-14T06:47:23.321Z,5.90
2023-05-14T06:49:51.090Z,7.07
2023-05-14T06:52:19.302Z,7.25
2023-05-14T06:54:47.309Z,6.03
2023-05-14T06:57:15.455Z,9.52
2023-05-14T06:59:43.426Z,7.95
2023-05-14T07:02:11.726Z,6.57
2023-05-14T07:04:39.773Z,6.57
2023-05-14T07:07:08.209Z,6.43
2023-05-14T07:09:36.048Z,5.82
2023-05-14T07:12:04.486Z,10.35
2023-05-14T07:14:32.281Z,14.57
2023-05-14T07:17:00.924Z,5.10
2023-05-14T07:19:30.048Z,8.35
2023-05-14T07:21:58.483Z,5.75
2023-05-14T07:24:26.366Z,6.25
2023-05-14T07:26:54.953Z,5.83
2023-05-14T07:29:22.602Z,7.60
2023-05-14T07:31:50.781Z,7.25
2023-05-14T07:34:19.238Z,6.07
2023-05-14T07:36:47.316Z,5.70
2023-05-14T07:39:15.512Z,5.23
2023-05-14T07:41:43.769Z,6.30
2023-05-14T07:44:12.835Z,7.85
2023-05-14T07:46:41.501Z,5.88
2023-05-14T07:49:09.367Z,5.65
2023-05-14T07:51:37.335Z,4.50
2023-05-14T07:54:05.232Z,7.03
2023-05-14T07:56:33.198Z,5.00
2023-05-14T07:59:01.056Z,6.05
2023-05-14T08:01:29.124Z,4.68
2023-05-14T08:03:56.987Z,5.43
2023-05-14T08:06:27.983Z,6.18
2023-05-14T08:08:55.931Z,6.97
2023-05-14T08:11:24.285Z,5.90
2023-05-14T08:13:52.054Z,5.90
2023-05-14T08:16:20.117Z,6.37
2023-05-14T08:18:48.119Z,7.72
2023-05-14T08:21:16.404Z,6.63
2023-05-14T08:23:44.597Z,6.75
2023-05-14T08:26:12.601Z,6.95
2023-05-14T08:28:40.542Z,8.10
2023-05-14T08:31:09.009Z,4.07
2023-05-14T08:33:36.757Z,8.65
2023-05-14T08:36:05.407Z,4.88
2023-05-14T08:38:33.916Z,8.18
2023-05-14T08:41:02.380Z,5.33
2023-05-14T08:43:39.505Z,10.05
2023-05-14T08:46:08.473Z,7.18
2023-05-14T08:48:36.668Z,5.65
2023-05-14T08:51:05.260Z,4.50
2023-05-14T08:53:33.141Z,4.67
2023-05-14T08:56:02.794Z,4.88
2023-05-14T08:58:30.634Z,4.43
2023-05-14T09:00:59.014Z,5.80
2023-05-14T09:03:27.134Z,9.18
2023-05-14T09:05:57.070Z,3.70
2023-05-14T09:08:26.508Z,8.32
2023-05-14T09:10:54.484Z,5.60
2023-05-14T09:13:22.227Z,7.43
2023-05-14T09:15:51.582Z,5.35
2023-05-14T09:18:20.744Z,4.67
2023-05-14T09:20:48.852Z,5.18
2023-05-14T09:23:16.777Z,5.53
2023-05-14T09:25:45.094Z,4.72
2023-05-14T09:28:13.270Z,4.47
2023-05-14T09:30:41.614Z,6.10
2023-05-14T09:33:10.789Z,5.15
2023-05-14T09:35:41.844Z,3.63
2023-05-14T09:38:09.815Z,5.30
2023-05-14T09:40:38.188Z,6.18
2023-05-14T09:43:06.294Z,5.30
2023-05-14T09:45:35.463Z,5.53
2023-05-14T09:48:03.885Z,7.30
2023-05-14T09:50:32.208Z,7.95
2023-05-14T09:53:00.873Z,4.25
2023-05-14T09:55:29.682Z,4.37
2023-05-14T09:57:57.476Z,7.15
2023-05-14T10:00:25.860Z,4.93
2023-05-14T10:02:55.314Z,5.10
2023-05-14T10:05:24.089Z,4.97
2023-05-14T10:07:54.810Z,5.03
2023-05-14T10:10:27.306Z,6.22
2023-05-14T10:13:04.958Z,6.68
2023-05-14T10:15:49.313Z,3.38
2023-05-14T10:18:20.471Z,4.25
2023-05-14T10:20:53.788Z,6.63
2023-05-14T10:23:21.729Z,4.30
2023-05-14T10:25:51.391Z,7.20
2023-05-14T10:28:19.729Z,4.15
2023-05-14T10:30:47.894Z,7.82
2023-05-14T10:33:17.051Z,3.50
2023-05-14T10:36:01.010Z,3.65
2023-05-14T10:38:38.431Z,4.32
2023-05-14T10:41:10.992Z,3.42
2023-05-14T10:43:40.857Z,5.35
2023-05-14T10:46:11.056Z,4.23
2023-05-14T10:48:42.294Z,8.73
2023-05-14T10:51:11.947Z,5.80
2023-05-14T10:53:41.853Z,4.95
2023-05-14T10:56:12.342Z,5.65
2023-05-14T10:58:42.719Z,4.80
2023-05-14T11:01:12.950Z,4.03
2023-05-14T11:03:43.854Z,5.07
2023-05-14T11:06:15.932Z,3.80
2023-05-14T11:08:44.969Z,4.03
2023-05-14T11:11:13.053Z,5.60
2023-05-14T11:13:41.886Z,4.18
2023-05-14T11:18:42.204Z,4.95
2023-05-14T11:21:10.660Z,3.90
2023-05-14T11:23:38.699Z,6.03
2023-05-14T11:26:07.856Z,5.10
2023-05-14T11:28:35.954Z,9.05
2023-05-14T11:31:06.089Z,6.28
2023-05-14T11:33:33.844Z,6.43
2023-05-14T11:36:01.778Z,8.00
2023-05-14T11:38:29.819Z,4.90
2023-05-14T11:41:01.024Z,8.23
2023-05-14T11:43:29.661Z,4.80
2023-05-14T11:45:57.945Z,4.35
2023-05-14T11:48:26.907Z,7.07
2023-05-14T11:50:55.069Z,6.47
2023-05-14T11:53:28.046Z,4.43
2023-05-14T11:55:58.170Z,4.57
2023-05-14T11:58:25.969Z,5.47
2023-05-14T12:00:56.413Z,3.53
2023-05-14T12:03:30.148Z,3.88
2023-05-14T12:06:06.926Z,3.88
2023-05-14T12:08:34.668Z,5.70
2023-05-14T12:11:02.723Z,3.97
2023-05-14T12:13:31.831Z,4.33
2023-05-14T12:16:02.545Z,4.75
2023-05-14T12:18:32.672Z,7.72
2023-05-14T12:21:05.404Z,6.45
2023-05-14T12:23:33.533Z,4.50
2023-05-14T12:26:07.038Z,4.30
2023-05-14T12:28:38.282Z,3.97
2023-05-14T12:31:07.050Z,16.63
2023-05-14T12:33:34.888Z,4.30
2023-05-14T12:36:14.103Z,5.00
2023-05-14T12:38:50.154Z,4.97
2023-05-14T12:41:18.784Z,5.30
2023-05-14T12:43:49.986Z,5.03
2023-05-14T12:46:18.315Z,4.40
2023-05-14T12:48:46.773Z,5.90
2023-05-14T12:51:15.616Z,5.83
2023-05-14T12:53:43.463Z,6.47
2023-05-14T12:56:12.343Z,5.85
2023-05-14T12:58:40.228Z,5.65
2023-05-14T13:01:09.024Z,7.30
2023-05-14T13:03:36.831Z,6.50
2023-05-14T13:06:05.109Z,6.80
2023-05-14T13:08:32.613Z,6.35
2023-05-14T13:11:00.829Z,4.43
2023-05-14T13:13:28.600Z,4.20
2023-05-14T13:15:56.503Z,4.40
2023-05-14T13:18:26.018Z,4.50
2023-05-14T13:20:54.826Z,5.30
2023-05-14T13:23:22.898Z,4.68
2023-05-14T13:25:51.189Z,3.92
2023-05-14T13:28:19.164Z,5.50
2023-05-14T13:31:07.381Z,4.35
2023-05-14T13:33:37.279Z,5.22
2023-05-14T13:36:05.441Z,4.03
2023-05-14T13:38:33.676Z,6.05
2023-05-14T13:41:04.753Z,4.30
2023-05-14T13:43:34.635Z,5.03
2023-05-14T13:46:04.092Z,5.43
2023-05-14T13:48:32.682Z,4.85
2023-05-14T13:51:00.552Z,5.22
2023-05-14T13:53:28.758Z,4.57
2023-05-14T13:55:58.707Z,3.85
2023-05-14T13:58:27.678Z,6.38
2023-05-14T14:00:55.516Z,5.00
2023-05-14T14:03:23.967Z,5.82
2023-05-14T14:05:52.595Z,4.70
2023-05-14T14:08:24.017Z,4.00
2023-05-14T14:10:54.887Z,4.97
2023-05-14T14:13:23.445Z,6.30
2023-05-14T14:15:51.511Z,5.72
2023-05-14T14:18:19.648Z,7.27
2023-05-14T14:20:47.469Z,4.80
2023-05-14T14:23:15.769Z,4.43
2023-05-14T14:25:44.141Z,6.00
2023-05-14T14:28:12.399Z,4.03
2023-05-14T14:30:40.233Z,5.83
2023-05-14T14:33:08.593Z,4.75
2023-05-14T14:35:37.867Z,4.85
2023-05-14T14:38:06.346Z,6.30
2023-05-14T14:40:35.148Z,7.40
2023-05-14T14:43:03.657Z,7.53
2023-05-14T14:45:31.578Z,5.63
2023-05-14T14:48:38.197Z,5.53
2023-05-14T14:51:08.568Z,3.92
2023-05-14T14:53:45.211Z,4.13
2023-05-14T14:56:13.036Z,3.53
2023-05-14T14:58:41.246Z,4.03
2023-05-14T15:01:16.085Z,4.00
2023-05-14T15:03:55.589Z,5.85
2023-05-14T15:06:26.646Z,6.18
2023-05-14T15:08:54.849Z,4.93
2023-05-14T15:11:22.825Z,6.93
2023-05-14T15:13:51.079Z,5.68
2023-05-14T15:16:19.958Z,4.90
2023-05-14T15:18:48.146Z,6.40
2023-05-14T15:21:18.570Z,5.60
2023-05-14T15:23:46.795Z,4.93
2023-05-14T15:26:14.514Z,5.57
2023-05-14T15:28:43.060Z,4.05
2023-05-14T15:31:10.732Z,4.03
2023-05-14T15:33:39.063Z,7.20
2023-05-14T15:36:07.203Z,4.85
2023-05-14T15:38:35.354Z,3.83
2023-05-14T15:41:03.023Z,5.40
2023-05-14T15:43:31.273Z,4.60
2023-05-14T15:45:58.945Z,5.00
2023-05-14T15:48:27.123Z,4.45
2023-05-14T15:50:54.836Z,7.07
2023-05-14T15:53:23.082Z,4.55
2023-05-14T15:55:51.026Z,4.70
2023-05-14T15:58:19.238Z,4.03
2023-05-14T16:00:47.157Z,3.53
2023-05-14T16:03:15.277Z,4.13
2023-05-14T16:05:43.205Z,4.82
2023-05-14T16:08:12.139Z,3.85
2023-05-14T16:10:40.007Z,7.73
2023-05-14T16:13:08.165Z,9.27
2023-05-14T16:15:36.061Z,3.53
2023-05-14T16:18:04.626Z,5.05
2023-05-14T16:20:32.572Z,8.63
2023-05-14T16:23:01.084Z,4.30
2023-05-14T16:25:30.946Z,4.15
2023-05-14T16:27:59.033Z,3.85
2023-05-14T16:30:26.857Z,4.82
2023-05-14T16:32:55.306Z,6.13
2023-05-14T16:35:23.138Z,5.43
2023-05-14T16:37:51.351Z,4.13
2023-05-14T16:40:20.180Z,4.30
2023-05-14T16:42:54.237Z,5.05
2023-05-14T16:45:24.600Z,5.63
2023-05-14T16:47:53.404Z,4.83
2023-05-14T16:50:21.410Z,5.97
2023-05-14T16:52:49.814Z,5.07
2023-05-14T16:55:17.485Z,4.60
2023-05-14T16:57:46.389Z,4.85
2023-05-14T17:00:15.492Z,5.20
2023-05-14T17:02:43.600Z,7.47
2023-05-14T17:05:11.582Z,7.05
2023-05-14T17:07:40.024Z,5.65
2023-05-14T17:10:08.136Z,4.65
2023-05-14T17:12:36.423Z,5.47
2023-05-14T17:15:06.677Z,5.55
2023-05-14T17:17:34.988Z,4.75
2023-05-14T17:20:05.993Z,12.18
2023-05-14T17:22:33.772Z,6.53
2023-05-14T17:25:01.900Z,6.67
2023-05-14T17:27:32.129Z,7.93
2023-05-14T17:30:01.648Z,7.32
2023-05-14T17:32:30.023Z,5.93
2023-05-14T17:34:58.578Z,5.07
2023-05-14T17:37:26.876Z,5.17
2023-05-14T17:39:54.947Z,5.05
2023-05-14T17:42:22.598Z,5.18
2023-05-14T17:44:53.150Z,5.15
2023-05-14T17:47:43.176Z,8.80
2023-05-14T17:50:24.007Z,4.87
2023-05-14T17:53:21.089Z,4.25
2023-05-14T17:59:34.859Z,6.25
2023-05-14T18:02:02.863Z,4.47
2023-05-14T18:04:53.487Z,7.77
2023-05-14T18:07:55.828Z,6.90
2023-05-14T18:10:54.835Z,5.28
2023-05-14T18:13:24.378Z,8.68
2023-05-14T18:15:59.550Z,6.97
2023-05-14T18:18:45.050Z,4.93
2023-05-14T18:22:12.483Z,7.22
2023-05-14T18:28:25.171Z,4.57
2023-05-14T18:31:40.875Z,9.27
2023-05-14T18:34:46.562Z,5.80
2023-05-14T18:37:59.553Z,8.15
2023-05-14T18:40:35.614Z,7.47
2023-05-14T18:43:03.400Z,4.28
2023-05-14T18:45:31.538Z,8.20
2023-05-14T18:48:32.821Z,7.93
2023-05-14T18:51:07.063Z,6.22
2023-05-14T18:53:48.138Z,6.35
2023-05-14T18:56:27.738Z,4.85
2023-05-14T18:59:05.218Z,5.05
2023-05-14T19:01:42.069Z,7.83
2023-05-14T19:04:10.059Z,7.15
2023-05-14T19:06:43.939Z,6.57
2023-05-14T19:09:36.639Z,5.38
2023-05-14T19:12:08.856Z,8.25
2023-05-14T19:15:06.439Z,5.40
2023-05-14T19:17:42.052Z,7.15
2023-05-14T19:20:35.058Z,7.05
2023-05-14T19:23:35.624Z,7.60
2023-05-14T19:26:14.629Z,7.80
2023-05-14T19:28:49.694Z,9.10
2023-05-14T19:31:20.010Z,6.97
2023-05-14T19:34:07.170Z,7.40
2023-05-14T19:36:38.122Z,8.35
2023-05-14T19:39:20.152Z,6.82
2023-05-14T19:41:49.360Z,6.17
2023-05-14T19:44:17.396Z,4.75
2023-05-14T19:46:55.382Z,8.20
2023-05-14T19:49:29.178Z,4.40
2023-05-14T19:51:56.860Z,4.97
2023-05-14T19:54:24.969Z,5.50
2023-05-14T19:56:55.860Z,6.68
2023-05-14T19:59:25.206Z,5.22
2023-05-14T20:01:54.811Z,6.10
2023-05-14T20:04:22.894Z,5.97
2023-05-14T20:06:50.594Z,5.23
2023-05-14T20:09:18.464Z,4.43
2023-05-14T20:11:46.180Z,5.40
2023-05-14T20:14:14.625Z,5.47
2023-05-14T20:16:42.873Z,7.90
2023-05-14T20:19:11.416Z,7.07
2023-05-14T20:21:39.265Z,8.25
2023-05-14T20:24:07.271Z,8.27
2023-05-14T20:26:35.057Z,9.05
2023-05-14T20:29:02.975Z,5.13
2023-05-14T20:31:30.774Z,5.43
2023-05-14T20:33:59.016Z,4.60
2023-05-14T20:36:26.700Z,7.72
2023-05-14T20:38:54.588Z,7.13
2023-05-14T20:41:22.741Z,10.93
2023-05-14T20:43:50.785Z,7.40
2023-05-14T20:46:18.668Z,7.93
2023-05-14T20:48:48.427Z,5.63
2023-05-14T20:51:16.272Z,6.57
2023-05-14T20:53:44.282Z,8.02
2023-05-14T20:56:12.162Z,9.10
2023-05-14T20:58:40.128Z,6.45
2023-05-14T21:01:08.445Z,6.22
2023-05-14T21:03:36.586Z,8.02
2023-05-14T21:06:04.699Z,6.85
2023-05-14T21:08:33.362Z,5.90
2023-05-14T21:11:01.090Z,7.50
2023-05-14T21:13:29.076Z,6.18
2023-05-14T21:15:56.807Z,4.22
2023-05-14T21:18:27.404Z,4.65
2023-05-14T21:20:55.257Z,5.93
2023-05-14T21:23:25.438Z,5.75
2023-05-14T21:25:55.093Z,8.95
2023-05-14T21:28:23.116Z,5.68
2023-05-14T21:30:51.566Z,6.13
2023-05-14T21:33:19.591Z,6.23
2023-05-14T21:35:47.515Z,6.07
2023-05-14T21:38:15.919Z,5.22
2023-05-14T21:40:43.603Z,5.57
2023-05-14T21:43:11.501Z,6.50
2023-05-14T21:45:39.378Z,5.30
2023-05-14T21:48:07.641Z,5.85
2023-05-14T21:50:35.714Z,5.43
2023-05-14T21:53:03.690Z,5.60
2023-05-14T21:55:31.479Z,8.65
2023-05-14T21:57:59.732Z,8.77
2023-05-14T22:00:27.448Z,5.45
2023-05-14T22:02:55.594Z,6.65
2023-05-14T22:05:23.912Z,6.13
2023-05-14T22:07:52.485Z,6.82
2023-05-14T22:10:20.198Z,5.50
2023-05-14T22:12:48.064Z,6.75
2023-05-14T22:15:15.943Z,8.85
2023-05-14T22:17:43.949Z,6.15
2023-05-14T22:20:11.935Z,13.25
2023-05-14T22:22:39.895Z,5.37
2023-05-14T22:25:09.158Z,5.75
2023-05-14T22:27:36.986Z,6.13
2023-05-14T22:30:05.369Z,6.50
2023-05-14T22:32:33.224Z,6.82
2023-05-14T22:35:01.018Z,7.57
2023-05-14T22:37:28.890Z,5.35
2023-05-14T22:39:56.530Z,6.15
2023-05-14T22:42:24.552Z,6.20
2023-05-14T22:44:52.200Z,7.53
2023-05-14T22:47:20.426Z,8.13
2023-05-14T22:49:48.290Z,6.10
2023-05-14T22:52:16.289Z,7.68
2023-05-14T22:54:44.090Z,5.75
2023-05-14T22:57:12.105Z,7.38
2023-05-14T22:59:39.944Z,4.87
2023-05-14T23:02:08.052Z,7.63
2023-05-14T23:04:36.154Z,5.30
2023-05-14T23:07:04.252Z,12.40
2023-05-14T23:09:31.903Z,6.97
2023-05-14T23:11:59.684Z,7.43
2023-05-14T23:14:27.326Z,8.23
2023-05-14T23:16:55.243Z,5.65
2023-05-14T23:19:22.993Z,9.85
2023-05-14T23:21:51.261Z,5.43
2023-05-14T23:24:18.864Z,11.13
2023-05-14T23:26:50.175Z,10.35
2023-05-14T23:29:17.787Z,6.43
2023-05-14T23:31:45.701Z,6.70
2023-05-14T23:34:13.501Z,6.03
2023-05-14T23:36:41.448Z,6.40
2023-05-14T23:39:09.126Z,6.72
2023-05-14T23:41:36.951Z,8.07
2023-05-14T23:44:04.641Z,5.70
2023-05-14T23:46:32.939Z,6.57
2023-05-14T23:49:01.388Z,6.47
2023-05-14T23:51:29.315Z,6.47
2023-05-14T23:53:58.816Z,5.57
2023-05-14T23:56:27.752Z,8.63
2023-05-14T23:58:56.022Z,7.75
